sensor_id;sensor_type;location;lat;lon;timestamp;P1;durP1;ratioP1;P2;durP2;ratioP2
39896;SDS011;25567;48.276;14.242;2024-03-23T00:54:00;28.70;;;14.10;;
39896;SDS011;25567;48.276;14.242;2024-03-23T00:56:26;26.00;;;14.05;;
39896;SDS011;25567;48.276;14.242;2024-03-23T00:58:51;30.38;;;14.30;;
39896;SDS011;25567;48.276;14.242;2024-03-23T01:01:17;27.30;;;14.43;;
39896;SDS011;25567;48.276;14.242;2024-03-23T01:03:43;30.55;;;14.90;;
39896;SDS011;25567;48.276;14.242;2024-03-23T01:06:08;26.05;;;13.90;;
39896;SDS011;25567;48.276;14.242;2024-03-23T01:08:34;25.45;;;14.30;;
39896;SDS011;25567;48.276;14.242;2024-03-23T01:11:00;29.02;;;14.15;;
39896;SDS011;25567;48.276;14.242;2024-03-23T01:13:27;26.50;;;13.57;;
39896;SDS011;25567;48.276;14.242;2024-03-23T01:15:54;28.95;;;13.93;;
39896;SDS011;25567;48.276;14.242;2024-03-23T01:18:21;26.85;;;13.13;;
39896;SDS011;25567;48.276;14.242;2024-03-23T01:20:48;24.88;;;12.90;;
39896;SDS011;25567;48.276;14.242;2024-03-23T01:23:14;23.23;;;12.23;;
39896;SDS011;25567;48.276;14.242;2024-03-23T01:25:40;29.73;;;15.05;;
39896;SDS011;25567;48.276;14.242;2024-03-23T01:28:06;27.00;;;12.98;;
39896;SDS011;25567;48.276;14.242;2024-03-23T01:30:32;24.17;;;12.27;;
39896;SDS011;25567;48.276;14.242;2024-03-23T01:32:59;24.73;;;12.23;;
39896;SDS011;25567;48.276;14.242;2024-03-23T01:35:24;21.00;;;11.43;;
39896;SDS011;25567;48.276;14.242;2024-03-23T01:37:50;29.10;;;13.93;;
39896;SDS011;25567;48.276;14.242;2024-03-23T01:40:16;23.80;;;11.88;;
39896;SDS011;25567;48.276;14.242;2024-03-23T01:42:42;21.25;;;12.82;;
39896;SDS011;25567;48.276;14.242;2024-03-23T01:45:08;28.27;;;13.88;;
39896;SDS011;25567;48.276;14.242;2024-03-23T01:47:37;22.98;;;11.73;;
39896;SDS011;25567;48.276;14.242;2024-03-23T01:50:03;22.20;;;12.05;;
39896;SDS011;25567;48.276;14.242;2024-03-23T01:52:30;28.40;;;12.77;;
39896;SDS011;25567;48.276;14.242;2024-03-23T01:54:55;26.10;;;12.13;;
39896;SDS011;25567;48.276;14.242;2024-03-23T01:57:21;20.13;;;10.70;;
39896;SDS011;25567;48.276;14.242;2024-03-23T01:59:47;25.98;;;11.40;;
39896;SDS011;25567;48.276;14.242;2024-03-23T02:02:13;26.48;;;12.02;;
39896;SDS011;25567;48.276;14.242;2024-03-23T02:04:39;24.33;;;12.00;;
39896;SDS011;25567;48.276;14.242;2024-03-23T02:07:08;23.23;;;11.60;;
39896;SDS011;25567;48.276;14.242;2024-03-23T02:09:34;31.52;;;14.50;;
39896;SDS011;25567;48.276;14.242;2024-03-23T02:12:01;30.30;;;14.38;;
39896;SDS011;25567;48.276;14.242;2024-03-23T02:14:27;34.15;;;14.57;;
39896;SDS011;25567;48.276;14.242;2024-03-23T02:16:53;29.08;;;15.02;;
39896;SDS011;25567;48.276;14.242;2024-03-23T02:19:19;35.53;;;14.63;;
39896;SDS011;25567;48.276;14.242;2024-03-23T02:21:45;24.17;;;12.50;;
39896;SDS011;25567;48.276;14.242;2024-03-23T02:24:12;30.65;;;12.90;;
39896;SDS011;25567;48.276;14.242;2024-03-23T02:26:38;25.48;;;12.82;;
39896;SDS011;25567;48.276;14.242;2024-03-23T02:29:03;28.00;;;12.45;;
39896;SDS011;25567;48.276;14.242;2024-03-23T02:31:29;32.42;;;12.98;;
39896;SDS011;25567;48.276;14.242;2024-03-23T02:33:55;27.38;;;13.65;;
39896;SDS011;25567;48.276;14.242;2024-03-23T02:36:21;29.00;;;13.70;;
39896;SDS011;25567;48.276;14.242;2024-03-23T02:38:46;25.65;;;13.70;;
39896;SDS011;25567;48.276;14.242;2024-03-23T02:41:12;28.23;;;15.00;;
39896;SDS011;25567;48.276;14.242;2024-03-23T02:43:39;30.95;;;15.27;;
39896;SDS011;25567;48.276;14.242;2024-03-23T02:46:04;27.42;;;14.18;;
39896;SDS011;25567;48.276;14.242;2024-03-23T02:48:30;28.73;;;13.32;;
39896;SDS011;25567;48.276;14.242;2024-03-23T02:50:56;24.30;;;13.23;;
39896;SDS011;25567;48.276;14.242;2024-03-23T02:53:22;27.67;;;12.43;;
39896;SDS011;25567;48.276;14.242;2024-03-23T02:55:47;24.02;;;12.93;;
39896;SDS011;25567;48.276;14.242;2024-03-23T02:58:13;29.10;;;12.77;;
39896;SDS011;25567;48.276;14.242;2024-03-23T03:00:39;22.35;;;11.80;;
39896;SDS011;25567;48.276;14.242;2024-03-23T03:03:06;24.73;;;13.27;;
39896;SDS011;25567;48.276;14.242;2024-03-23T03:05:32;25.33;;;13.25;;
39896;SDS011;25567;48.276;14.242;2024-03-23T03:07:58;26.27;;;13.52;;
39896;SDS011;25567;48.276;14.242;2024-03-23T03:10:24;23.00;;;13.43;;
39896;SDS011;25567;48.276;14.242;2024-03-23T03:12:49;30.90;;;13.35;;
39896;SDS011;25567;48.276;14.242;2024-03-23T03:15:15;31.00;;;14.10;;
39896;SDS011;25567;48.276;14.242;2024-03-23T03:17:41;24.95;;;13.38;;
39896;SDS011;25567;48.276;14.242;2024-03-23T03:20:07;30.75;;;14.00;;
39896;SDS011;25567;48.276;14.242;2024-03-23T03:22:38;27.85;;;15.35;;
39896;SDS011;25567;48.276;14.242;2024-03-23T03:25:05;30.60;;;15.30;;
39896;SDS011;25567;48.276;14.242;2024-03-23T03:27:32;28.02;;;14.60;;
39896;SDS011;25567;48.276;14.242;2024-03-23T03:29:59;33.47;;;16.02;;
39896;SDS011;25567;48.276;14.242;2024-03-23T03:32:30;26.17;;;14.27;;
39896;SDS011;25567;48.276;14.242;2024-03-23T03:34:56;30.52;;;14.50;;
39896;SDS011;25567;48.276;14.242;2024-03-23T03:37:21;29.20;;;14.23;;
39896;SDS011;25567;48.276;14.242;2024-03-23T03:39:47;29.48;;;13.90;;
39896;SDS011;25567;48.276;14.242;2024-03-23T03:42:13;28.85;;;13.60;;
39896;SDS011;25567;48.276;14.242;2024-03-23T03:44:38;25.27;;;13.73;;
39896;SDS011;25567;48.276;14.242;2024-03-23T03:47:05;31.67;;;15.00;;
39896;SDS011;25567;48.276;14.242;2024-03-23T03:49:31;33.00;;;15.75;;
39896;SDS011;25567;48.276;14.242;2024-03-23T03:51:57;38.08;;;16.45;;
39896;SDS011;25567;48.276;14.242;2024-03-23T03:54:23;27.17;;;14.57;;
39896;SDS011;25567;48.276;14.242;2024-03-23T03:56:48;31.90;;;14.70;;
39896;SDS011;25567;48.276;14.242;2024-03-23T03:59:15;26.90;;;13.95;;
39896;SDS011;25567;48.276;14.242;2024-03-23T04:01:40;29.50;;;14.77;;
39896;SDS011;25567;48.276;14.242;2024-03-23T04:04:06;33.90;;;15.35;;
39896;SDS011;25567;48.276;14.242;2024-03-23T04:08:58;31.03;;;15.60;;
39896;SDS011;25567;48.276;14.242;2024-03-23T04:11:24;33.53;;;16.15;;
39896;SDS011;25567;48.276;14.242;2024-03-23T04:13:50;31.17;;;17.27;;
39896;SDS011;25567;48.276;14.242;2024-03-23T04:16:28;33.90;;;16.42;;
39896;SDS011;25567;48.276;14.242;2024-03-23T04:18:55;36.08;;;15.65;;
39896;SDS011;25567;48.276;14.242;2024-03-23T04:21:21;32.33;;;17.05;;
39896;SDS011;25567;48.276;14.242;2024-03-23T04:23:48;28.17;;;15.63;;
39896;SDS011;25567;48.276;14.242;2024-03-23T04:26:14;30.25;;;15.75;;
39896;SDS011;25567;48.276;14.242;2024-03-23T04:28:40;31.02;;;16.52;;
39896;SDS011;25567;48.276;14.242;2024-03-23T04:31:06;31.98;;;16.88;;
39896;SDS011;25567;48.276;14.242;2024-03-23T04:33:32;35.67;;;16.98;;
39896;SDS011;25567;48.276;14.242;2024-03-23T04:38:23;35.72;;;18.35;;
39896;SDS011;25567;48.276;14.242;2024-03-23T04:43:21;39.35;;;18.10;;
39896;SDS011;25567;48.276;14.242;2024-03-23T04:45:47;42.35;;;17.70;;
39896;SDS011;25567;48.276;14.242;2024-03-23T04:48:12;36.80;;;18.65;;
39896;SDS011;25567;48.276;14.242;2024-03-23T04:50:38;42.10;;;18.05;;
39896;SDS011;25567;48.276;14.242;2024-03-23T04:55:29;35.17;;;17.67;;
39896;SDS011;25567;48.276;14.242;2024-03-23T04:57:56;40.00;;;18.42;;
39896;SDS011;25567;48.276;14.242;2024-03-23T05:00:22;34.83;;;17.80;;
39896;SDS011;25567;48.276;14.242;2024-03-23T05:02:48;37.13;;;16.92;;
39896;SDS011;25567;48.276;14.242;2024-03-23T05:05:14;31.80;;;17.80;;
39896;SDS011;25567;48.276;14.242;2024-03-23T05:07:40;37.92;;;18.15;;
39896;SDS011;25567;48.276;14.242;2024-03-23T05:10:07;32.70;;;16.33;;
39896;SDS011;25567;48.276;14.242;2024-03-23T05:12:36;31.17;;;16.52;;
39896;SDS011;25567;48.276;14.242;2024-03-23T05:15:04;36.38;;;15.63;;
39896;SDS011;25567;48.276;14.242;2024-03-23T05:17:31;33.70;;;15.73;;
39896;SDS011;25567;48.276;14.242;2024-03-23T05:19:57;33.00;;;17.00;;
39896;SDS011;25567;48.276;14.242;2024-03-23T05:22:23;30.58;;;15.20;;
39896;SDS011;25567;48.276;14.242;2024-03-23T05:24:49;33.65;;;17.25;;
39896;SDS011;25567;48.276;14.242;2024-03-23T05:27:14;40.85;;;16.73;;
39896;SDS011;25567;48.276;14.242;2024-03-23T05:32:06;39.63;;;16.88;;
39896;SDS011;25567;48.276;14.242;2024-03-23T05:34:32;32.22;;;16.02;;
39896;SDS011;25567;48.276;14.242;2024-03-23T05:36:58;36.38;;;17.33;;
39896;SDS011;25567;48.276;14.242;2024-03-23T05:39:24;34.90;;;16.50;;
39896;SDS011;25567;48.276;14.242;2024-03-23T05:41:50;30.88;;;15.95;;
39896;SDS011;25567;48.276;14.242;2024-03-23T05:44:16;33.45;;;17.10;;
39896;SDS011;25567;48.276;14.242;2024-03-23T05:46:42;41.38;;;19.75;;
39896;SDS011;25567;48.276;14.242;2024-03-23T05:49:13;40.60;;;20.70;;
39896;SDS011;25567;48.276;14.242;2024-03-23T05:51:40;44.72;;;21.52;;
39896;SDS011;25567;48.276;14.242;2024-03-23T05:54:06;46.47;;;21.85;;
39896;SDS011;25567;48.276;14.242;2024-03-23T05:56:32;42.47;;;20.48;;
39896;SDS011;25567;48.276;14.242;2024-03-23T05:58:58;38.78;;;18.77;;
39896;SDS011;25567;48.276;14.242;2024-03-23T06:01:23;41.33;;;19.65;;
39896;SDS011;25567;48.276;14.242;2024-03-23T06:03:49;41.38;;;20.85;;
39896;SDS011;25567;48.276;14.242;2024-03-23T06:06:15;44.90;;;21.23;;
39896;SDS011;25567;48.276;14.242;2024-03-23T06:08:41;44.42;;;20.45;;
39896;SDS011;25567;48.276;14.242;2024-03-23T06:11:06;39.00;;;19.60;;
39896;SDS011;25567;48.276;14.242;2024-03-23T06:13:32;46.08;;;20.40;;
39896;SDS011;25567;48.276;14.242;2024-03-23T06:15:59;38.10;;;20.13;;
39896;SDS011;25567;48.276;14.242;2024-03-23T06:18:25;37.50;;;18.30;;
39896;SDS011;25567;48.276;14.242;2024-03-23T06:20:51;50.70;;;20.85;;
39896;SDS011;25567;48.276;14.242;2024-03-23T06:23:17;47.40;;;21.83;;
39896;SDS011;25567;48.276;14.242;2024-03-23T06:25:45;39.22;;;20.05;;
39896;SDS011;25567;48.276;14.242;2024-03-23T06:28:11;46.65;;;23.88;;
39896;SDS011;25567;48.276;14.242;2024-03-23T06:30:37;45.30;;;22.25;;
39896;SDS011;25567;48.276;14.242;2024-03-23T06:33:03;46.63;;;22.35;;
39896;SDS011;25567;48.276;14.242;2024-03-23T06:35:31;46.80;;;21.25;;
39896;SDS011;25567;48.276;14.242;2024-03-23T06:37:57;45.13;;;23.67;;
39896;SDS011;25567;48.276;14.242;2024-03-23T06:40:23;50.70;;;24.27;;
39896;SDS011;25567;48.276;14.242;2024-03-23T06:42:49;49.50;;;23.10;;
39896;SDS011;25567;48.276;14.242;2024-03-23T06:45:16;52.17;;;23.88;;
39896;SDS011;25567;48.276;14.242;2024-03-23T06:47:42;45.88;;;23.38;;
39896;SDS011;25567;48.276;14.242;2024-03-23T06:50:08;48.75;;;22.83;;
39896;SDS011;25567;48.276;14.242;2024-03-23T06:52:35;45.90;;;23.17;;
39896;SDS011;25567;48.276;14.242;2024-03-23T06:55:01;45.60;;;22.42;;
39896;SDS011;25567;48.276;14.242;2024-03-23T06:57:29;41.58;;;21.75;;
39896;SDS011;25567;48.276;14.242;2024-03-23T06:59:55;49.72;;;21.98;;
39896;SDS011;25567;48.276;14.242;2024-03-23T07:02:21;46.13;;;20.52;;
39896;SDS011;25567;48.276;14.242;2024-03-23T07:04:46;40.55;;;21.15;;
39896;SDS011;25567;48.276;14.242;2024-03-23T07:07:12;46.95;;;20.70;;
39896;SDS011;25567;48.276;14.242;2024-03-23T07:09:38;38.97;;;19.77;;
39896;SDS011;25567;48.276;14.242;2024-03-23T07:12:04;38.88;;;19.75;;
39896;SDS011;25567;48.276;14.242;2024-03-23T07:14:30;37.00;;;18.80;;
39896;SDS011;25567;48.276;14.242;2024-03-23T07:16:55;32.70;;;18.45;;
39896;SDS011;25567;48.276;14.242;2024-03-23T07:19:22;32.95;;;17.25;;
39896;SDS011;25567;48.276;14.242;2024-03-23T07:21:48;40.22;;;20.00;;
39896;SDS011;25567;48.276;14.242;2024-03-23T07:24:13;36.65;;;17.40;;
39896;SDS011;25567;48.276;14.242;2024-03-23T07:26:40;37.55;;;18.15;;
39896;SDS011;25567;48.276;14.242;2024-03-23T07:29:06;40.25;;;18.52;;
39896;SDS011;25567;48.276;14.242;2024-03-23T07:31:32;39.22;;;18.20;;
39896;SDS011;25567;48.276;14.242;2024-03-23T07:33:58;41.40;;;18.27;;
39896;SDS011;25567;48.276;14.242;2024-03-23T07:36:23;36.20;;;17.17;;
39896;SDS011;25567;48.276;14.242;2024-03-23T07:38:50;38.72;;;17.65;;
39896;SDS011;25567;48.276;14.242;2024-03-23T07:41:16;36.67;;;17.48;;
39896;SDS011;25567;48.276;14.242;2024-03-23T07:43:43;38.50;;;17.15;;
39896;SDS011;25567;48.276;14.242;2024-03-23T07:46:09;40.65;;;17.33;;
39896;SDS011;25567;48.276;14.242;2024-03-23T07:48:35;32.15;;;16.30;;
39896;SDS011;25567;48.276;14.242;2024-03-23T07:53:30;36.08;;;17.00;;
39896;SDS011;25567;48.276;14.242;2024-03-23T07:56:05;42.28;;;17.48;;
39896;SDS011;25567;48.276;14.242;2024-03-23T07:58:32;53.27;;;16.90;;
39896;SDS011;25567;48.276;14.242;2024-03-23T08:01:05;38.08;;;16.40;;
39896;SDS011;25567;48.276;14.242;2024-03-23T08:03:35;35.03;;;16.00;;
39896;SDS011;25567;48.276;14.242;2024-03-23T08:08:34;31.02;;;15.95;;
39896;SDS011;25567;48.276;14.242;2024-03-23T08:11:00;32.40;;;16.05;;
39896;SDS011;25567;48.276;14.242;2024-03-23T08:13:26;37.88;;;17.42;;
39896;SDS011;25567;48.276;14.242;2024-03-23T08:15:51;34.67;;;15.77;;
39896;SDS011;25567;48.276;14.242;2024-03-23T08:18:17;35.88;;;16.38;;
39896;SDS011;25567;48.276;14.242;2024-03-23T08:20:43;33.25;;;15.25;;
39896;SDS011;25567;48.276;14.242;2024-03-23T08:23:09;28.10;;;12.30;;
39896;SDS011;25567;48.276;14.242;2024-03-23T08:25:35;33.05;;;14.00;;
39896;SDS011;25567;48.276;14.242;2024-03-23T08:28:01;28.85;;;12.20;;
39896;SDS011;25567;48.276;14.242;2024-03-23T08:30:27;24.17;;;11.63;;
39896;SDS011;25567;48.276;14.242;2024-03-23T08:32:53;21.20;;;11.27;;
39896;SDS011;25567;48.276;14.242;2024-03-23T08:35:19;16.67;;;10.30;;
39896;SDS011;25567;48.276;14.242;2024-03-23T08:37:45;21.20;;;10.80;;
39896;SDS011;25567;48.276;14.242;2024-03-23T08:40:11;19.17;;;9.85;;
39896;SDS011;25567;48.276;14.242;2024-03-23T08:42:36;17.08;;;9.43;;
39896;SDS011;25567;48.276;14.242;2024-03-23T08:45:02;25.30;;;9.73;;
39896;SDS011;25567;48.276;14.242;2024-03-23T08:47:28;18.25;;;9.35;;
39896;SDS011;25567;48.276;14.242;2024-03-23T08:49:54;19.35;;;9.55;;
39896;SDS011;25567;48.276;14.242;2024-03-23T08:52:20;18.55;;;8.68;;
39896;SDS011;25567;48.276;14.242;2024-03-23T08:54:48;17.65;;;7.82;;
39896;SDS011;25567;48.276;14.242;2024-03-23T08:57:14;14.20;;;7.75;;
39896;SDS011;25567;48.276;14.242;2024-03-23T08:59:39;15.95;;;8.07;;
39896;SDS011;25567;48.276;14.242;2024-03-23T09:02:05;17.70;;;7.70;;
39896;SDS011;25567;48.276;14.242;2024-03-23T09:04:31;21.13;;;8.02;;
39896;SDS011;25567;48.276;14.242;2024-03-23T09:06:57;21.27;;;7.53;;
39896;SDS011;25567;48.276;14.242;2024-03-23T09:09:25;12.48;;;6.85;;
39896;SDS011;25567;48.276;14.242;2024-03-23T09:11:51;14.75;;;6.65;;
39896;SDS011;25567;48.276;14.242;2024-03-23T09:14:17;9.95;;;6.50;;
39896;SDS011;25567;48.276;14.242;2024-03-23T09:16:43;11.98;;;7.40;;
39896;SDS011;25567;48.276;14.242;2024-03-23T09:19:08;13.18;;;7.03;;
39896;SDS011;25567;48.276;14.242;2024-03-23T09:21:34;10.43;;;6.93;;
39896;SDS011;25567;48.276;14.242;2024-03-23T09:24:00;14.85;;;7.22;;
39896;SDS011;25567;48.276;14.242;2024-03-23T09:26:26;12.05;;;6.70;;
39896;SDS011;25567;48.276;14.242;2024-03-23T09:28:51;12.32;;;6.20;;
39896;SDS011;25567;48.276;14.242;2024-03-23T09:31:17;10.63;;;5.90;;
39896;SDS011;25567;48.276;14.242;2024-03-23T09:33:43;13.77;;;6.78;;
39896;SDS011;25567;48.276;14.242;2024-03-23T09:36:09;15.68;;;6.43;;
39896;SDS011;25567;48.276;14.242;2024-03-23T09:38:35;18.00;;;6.30;;
39896;SDS011;25567;48.276;14.242;2024-03-23T09:41:06;13.43;;;6.10;;
39896;SDS011;25567;48.276;14.242;2024-03-23T09:43:33;10.38;;;6.20;;
39896;SDS011;25567;48.276;14.242;2024-03-23T09:46:01;11.75;;;6.10;;
39896;SDS011;25567;48.276;14.242;2024-03-23T09:48:28;10.95;;;5.60;;
39896;SDS011;25567;48.276;14.242;2024-03-23T09:50:54;12.57;;;4.78;;
39896;SDS011;25567;48.276;14.242;2024-03-23T09:53:19;8.85;;;4.72;;
39896;SDS011;25567;48.276;14.242;2024-03-23T09:55:47;10.63;;;4.88;;
39896;SDS011;25567;48.276;14.242;2024-03-23T09:58:14;10.98;;;5.20;;
39896;SDS011;25567;48.276;14.242;2024-03-23T10:00:41;7.60;;;4.05;;
39896;SDS011;25567;48.276;14.242;2024-03-23T10:03:08;11.73;;;4.43;;
39896;SDS011;25567;48.276;14.242;2024-03-23T10:05:36;11.30;;;4.53;;
39896;SDS011;25567;48.276;14.242;2024-03-23T10:10:44;9.93;;;4.13;;
39896;SDS011;25567;48.276;14.242;2024-03-23T10:13:11;12.63;;;4.13;;
39896;SDS011;25567;48.276;14.242;2024-03-23T10:15:38;8.23;;;2.83;;
39896;SDS011;25567;48.276;14.242;2024-03-23T10:18:20;10.80;;;1.90;;
39896;SDS011;25567;48.276;14.242;2024-03-23T10:20:50;15.57;;;1.90;;
39896;SDS011;25567;48.276;14.242;2024-03-23T10:23:18;10.80;;;1.65;;
39896;SDS011;25567;48.276;14.242;2024-03-23T10:25:44;4.22;;;1.42;;
39896;SDS011;25567;48.276;14.242;2024-03-23T10:28:11;7.40;;;1.60;;
39896;SDS011;25567;48.276;14.242;2024-03-23T10:30:37;9.88;;;1.83;;
39896;SDS011;25567;48.276;14.242;2024-03-23T10:33:09;3.97;;;1.55;;
39896;SDS011;25567;48.276;14.242;2024-03-23T10:35:36;3.08;;;1.55;;
39896;SDS011;25567;48.276;14.242;2024-03-23T10:38:04;5.03;;;1.75;;
39896;SDS011;25567;48.276;14.242;2024-03-23T10:40:31;14.73;;;1.70;;
39896;SDS011;25567;48.276;14.242;2024-03-23T10:42:59;6.00;;;1.40;;
39896;SDS011;25567;48.276;14.242;2024-03-23T10:45:26;1.05;;;0.70;;
39896;SDS011;25567;48.276;14.242;2024-03-23T10:47:51;8.05;;;1.27;;
39896;SDS011;25567;48.276;14.242;2024-03-23T10:50:17;4.60;;;1.00;;
39896;SDS011;25567;48.276;14.242;2024-03-23T10:52:45;2.50;;;0.90;;
39896;SDS011;25567;48.276;14.242;2024-03-23T10:55:12;2.95;;;0.95;;
39896;SDS011;25567;48.276;14.242;2024-03-23T10:57:51;4.22;;;0.60;;
39896;SDS011;25567;48.276;14.242;2024-03-23T11:00:19;3.95;;;0.68;;
39896;SDS011;25567;48.276;14.242;2024-03-23T11:02:48;2.72;;;0.73;;
39896;SDS011;25567;48.276;14.242;2024-03-23T11:05:48;1.10;;;0.68;;
39896;SDS011;25567;48.276;14.242;2024-03-23T11:10:59;7.05;;;0.73;;
39896;SDS011;25567;48.276;14.242;2024-03-23T11:13:37;3.25;;;0.88;;
39896;SDS011;25567;48.276;14.242;2024-03-23T11:16:24;2.42;;;0.73;;
39896;SDS011;25567;48.276;14.242;2024-03-23T11:18:53;1.85;;;0.80;;
39896;SDS011;25567;48.276;14.242;2024-03-23T11:24:17;5.32;;;1.00;;
39896;SDS011;25567;48.276;14.242;2024-03-23T11:26:43;5.72;;;0.73;;
39896;SDS011;25567;48.276;14.242;2024-03-23T11:29:10;1.88;;;1.20;;
39896;SDS011;25567;48.276;14.242;2024-03-23T11:31:37;1.67;;;0.90;;
39896;SDS011;25567;48.276;14.242;2024-03-23T11:34:04;1.80;;;0.73;;
39896;SDS011;25567;48.276;14.242;2024-03-23T11:36:30;1.33;;;0.80;;
39896;SDS011;25567;48.276;14.242;2024-03-23T11:38:56;3.95;;;0.80;;
39896;SDS011;25567;48.276;14.242;2024-03-23T11:41:21;4.35;;;1.00;;
39896;SDS011;25567;48.276;14.242;2024-03-23T11:43:47;6.82;;;1.08;;
39896;SDS011;25567;48.276;14.242;2024-03-23T11:46:21;2.75;;;1.27;;
39896;SDS011;25567;48.276;14.242;2024-03-23T11:48:50;2.75;;;1.08;;
39896;SDS011;25567;48.276;14.242;2024-03-23T11:51:17;1.42;;;0.88;;
39896;SDS011;25567;48.276;14.242;2024-03-23T11:53:43;5.13;;;1.25;;
39896;SDS011;25567;48.276;14.242;2024-03-23T11:56:08;6.72;;;1.05;;
39896;SDS011;25567;48.276;14.242;2024-03-23T11:58:34;9.13;;;1.40;;
39896;SDS011;25567;48.276;14.242;2024-03-23T12:03:30;1.77;;;1.05;;
39896;SDS011;25567;48.276;14.242;2024-03-23T12:05:59;3.92;;;1.15;;
39896;SDS011;25567;48.276;14.242;2024-03-23T12:11:06;3.20;;;1.55;;
39896;SDS011;25567;48.276;14.242;2024-03-23T12:13:37;2.70;;;1.30;;
39896;SDS011;25567;48.276;14.242;2024-03-23T12:18:44;3.90;;;1.30;;
39896;SDS011;25567;48.276;14.242;2024-03-23T12:21:12;2.72;;;1.40;;
39896;SDS011;25567;48.276;14.242;2024-03-23T12:23:41;4.35;;;1.63;;
39896;SDS011;25567;48.276;14.242;2024-03-23T12:26:09;5.53;;;2.13;;
39896;SDS011;25567;48.276;14.242;2024-03-23T12:28:35;3.78;;;1.42;;
39896;SDS011;25567;48.276;14.242;2024-03-23T12:31:02;2.90;;;1.63;;
39896;SDS011;25567;48.276;14.242;2024-03-23T12:33:28;3.33;;;1.88;;
39896;SDS011;25567;48.276;14.242;2024-03-23T12:35:54;5.60;;;1.95;;
39896;SDS011;25567;48.276;14.242;2024-03-23T12:38:20;3.83;;;1.80;;
39896;SDS011;25567;48.276;14.242;2024-03-23T12:40:46;3.35;;;1.85;;
39896;SDS011;25567;48.276;14.242;2024-03-23T12:43:15;3.42;;;1.60;;
39896;SDS011;25567;48.276;14.242;2024-03-23T12:45:41;3.90;;;1.92;;
39896;SDS011;25567;48.276;14.242;2024-03-23T12:48:12;5.28;;;1.88;;
39896;SDS011;25567;48.276;14.242;2024-03-23T12:50:38;5.60;;;2.10;;
39896;SDS011;25567;48.276;14.242;2024-03-23T12:53:04;3.50;;;1.90;;
39896;SDS011;25567;48.276;14.242;2024-03-23T12:55:29;3.25;;;1.48;;
39896;SDS011;25567;48.276;14.242;2024-03-23T12:57:55;4.03;;;1.80;;
39896;SDS011;25567;48.276;14.242;2024-03-23T13:00:21;5.55;;;1.60;;
39896;SDS011;25567;48.276;14.242;2024-03-23T13:02:47;3.33;;;1.15;;
39896;SDS011;25567;48.276;14.242;2024-03-23T13:05:13;3.28;;;1.40;;
39896;SDS011;25567;48.276;14.242;2024-03-23T13:07:39;2.72;;;1.50;;
39896;SDS011;25567;48.276;14.242;2024-03-23T13:10:05;2.30;;;1.02;;
39896;SDS011;25567;48.276;14.242;2024-03-23T13:12:32;4.43;;;1.40;;
39896;SDS011;25567;48.276;14.242;2024-03-23T13:14:58;6.63;;;1.17;;
39896;SDS011;25567;48.276;14.242;2024-03-23T13:17:25;7.80;;;1.20;;
39896;SDS011;25567;48.276;14.242;2024-03-23T13:19:52;2.63;;;1.10;;
39896;SDS011;25567;48.276;14.242;2024-03-23T13:22:19;3.50;;;1.48;;
39896;SDS011;25567;48.276;14.242;2024-03-23T13:24:44;4.50;;;1.40;;
39896;SDS011;25567;48.276;14.242;2024-03-23T13:27:10;3.42;;;1.40;;
39896;SDS011;25567;48.276;14.242;2024-03-23T13:29:36;2.80;;;1.17;;
39896;SDS011;25567;48.276;14.242;2024-03-23T13:32:05;1.60;;;0.90;;
39896;SDS011;25567;48.276;14.242;2024-03-23T13:34:31;2.63;;;1.00;;
39896;SDS011;25567;48.276;14.242;2024-03-23T13:36:58;1.08;;;0.60;;
39896;SDS011;25567;48.276;14.242;2024-03-23T13:39:25;1.48;;;0.60;;
39896;SDS011;25567;48.276;14.242;2024-03-23T13:41:53;2.28;;;0.50;;
39896;SDS011;25567;48.276;14.242;2024-03-23T13:44:20;0.85;;;0.40;;
39896;SDS011;25567;48.276;14.242;2024-03-23T13:46:46;4.55;;;0.63;;
39896;SDS011;25567;48.276;14.242;2024-03-23T13:51:52;1.05;;;0.40;;
39896;SDS011;25567;48.276;14.242;2024-03-23T13:54:23;2.97;;;0.40;;
39896;SDS011;25567;48.276;14.242;2024-03-23T13:56:50;1.05;;;0.50;;
39896;SDS011;25567;48.276;14.242;2024-03-23T13:59:16;0.25;;;0.25;;
39896;SDS011;25567;48.276;14.242;2024-03-23T14:01:45;0.50;;;0.30;;
39896;SDS011;25567;48.276;14.242;2024-03-23T14:04:12;1.65;;;0.52;;
39896;SDS011;25567;48.276;14.242;2024-03-23T14:06:38;2.83;;;0.50;;
39896;SDS011;25567;48.276;14.242;2024-03-23T14:09:05;1.45;;;0.90;;
39896;SDS011;25567;48.276;14.242;2024-03-23T14:11:35;2.10;;;0.75;;
39896;SDS011;25567;48.276;14.242;2024-03-23T14:14:03;1.08;;;0.90;;
39896;SDS011;25567;48.276;14.242;2024-03-23T14:16:32;1.48;;;1.00;;
39896;SDS011;25567;48.276;14.242;2024-03-23T14:18:58;3.20;;;1.05;;
39896;SDS011;25567;48.276;14.242;2024-03-23T14:21:25;2.67;;;1.27;;
39896;SDS011;25567;48.276;14.242;2024-03-23T14:23:51;1.92;;;1.08;;
39896;SDS011;25567;48.276;14.242;2024-03-23T14:26:17;3.15;;;1.58;;
39896;SDS011;25567;48.276;14.242;2024-03-23T14:28:43;4.53;;;1.27;;
39896;SDS011;25567;48.276;14.242;2024-03-23T14:31:09;1.67;;;1.20;;
39896;SDS011;25567;48.276;14.242;2024-03-23T14:33:38;2.58;;;0.85;;
39896;SDS011;25567;48.276;14.242;2024-03-23T14:36:11;1.85;;;0.80;;
39896;SDS011;25567;48.276;14.242;2024-03-23T14:38:37;1.48;;;0.75;;
39896;SDS011;25567;48.276;14.242;2024-03-23T14:41:03;1.55;;;1.02;;
39896;SDS011;25567;48.276;14.242;2024-03-23T14:43:30;1.42;;;0.88;;
39896;SDS011;25567;48.276;14.242;2024-03-23T14:46:08;4.43;;;1.52;;
39896;SDS011;25567;48.276;14.242;2024-03-23T14:48:36;3.10;;;1.80;;
39896;SDS011;25567;48.276;14.242;2024-03-23T14:51:02;5.90;;;1.85;;
39896;SDS011;25567;48.276;14.242;2024-03-23T14:53:30;6.78;;;2.25;;
39896;SDS011;25567;48.276;14.242;2024-03-23T14:55:59;4.32;;;2.15;;
39896;SDS011;25567;48.276;14.242;2024-03-23T14:58:26;3.42;;;1.83;;
39896;SDS011;25567;48.276;14.242;2024-03-23T15:00:52;7.72;;;2.10;;
39896;SDS011;25567;48.276;14.242;2024-03-23T15:03:18;6.35;;;2.10;;
39896;SDS011;25567;48.276;14.242;2024-03-23T15:08:20;4.70;;;2.08;;
39896;SDS011;25567;48.276;14.242;2024-03-23T15:10:46;5.43;;;2.10;;
39896;SDS011;25567;48.276;14.242;2024-03-23T15:13:12;3.35;;;1.65;;
39896;SDS011;25567;48.276;14.242;2024-03-23T15:15:41;4.13;;;2.08;;
39896;SDS011;25567;48.276;14.242;2024-03-23T15:18:10;4.82;;;2.22;;
39896;SDS011;25567;48.276;14.242;2024-03-23T15:20:38;2.75;;;1.75;;
39896;SDS011;25567;48.276;14.242;2024-03-23T15:23:04;6.05;;;2.30;;
39896;SDS011;25567;48.276;14.242;2024-03-23T15:25:30;5.05;;;2.35;;
39896;SDS011;25567;48.276;14.242;2024-03-23T15:27:57;10.00;;;2.05;;
39896;SDS011;25567;48.276;14.242;2024-03-23T15:30:25;3.80;;;2.03;;
39896;SDS011;25567;48.276;14.242;2024-03-23T15:32:51;3.00;;;1.73;;
39896;SDS011;25567;48.276;14.242;2024-03-23T15:35:18;3.63;;;1.75;;
39896;SDS011;25567;48.276;14.242;2024-03-23T15:37:46;4.65;;;2.05;;
39896;SDS011;25567;48.276;14.242;2024-03-23T15:40:12;3.60;;;2.17;;
39896;SDS011;25567;48.276;14.242;2024-03-23T15:42:38;2.72;;;1.75;;
39896;SDS011;25567;48.276;14.242;2024-03-23T15:45:08;5.82;;;2.33;;
39896;SDS011;25567;48.276;14.242;2024-03-23T15:47:35;6.95;;;2.30;;